Time;durP1;ratioP1;P1;durP2;ratioP2;P2;SDS_P1;SDS_P2;PMS_P1;PMS_P2;Temp;Humidity;BMP_temperature;BMP_pressure;BME280_temperature;BME280_humidity;BME280_pressure;Samples;Min_cycle;Max_cycle;Signal;HPM_P1;HPM_P2
2021/10/25 00:02:06;;;;;;;15.75;5.85;;;;;;;3.59;98.31;98468.63;4965708;28;20532;-65
2021/10/25 00:04:33;;;;;;;23.33;8.07;;;;;;;4.08;97.93;98539.59;4967432;28;20117;-65
2021/10/25 00:07:01;;;;;;;11.07;3.75;;;;;;;3.88;98.83;98537.91;4965821;28;20050;-65
2021/10/25 00:09:29;;;;;;;5.18;2.47;;;;;;;3.58;100.00;98590.28;4967332;28;20057;-66
2021/10/25 00:11:56;;;;;;;9.40;3.53;;;;;;;3.81;99.12;98534.69;4966974;28;20065;-66
2021/10/25 00:14:23;;;;;;;5.47;2.60;;;;;;;3.73;99.24;98527.09;4966018;28;20054;-64
2021/10/25 00:16:50;;;;;;;5.35;2.28;;;;;;;3.75;99.02;98530.38;4967842;28;20464;-66
2021/10/25 00:19:18;;;;;;;12.50;4.82;;;;;;;3.69;99.85;98542.50;4966400;28;20070;-66
2021/10/25 00:21:44;;;;;;;9.57;3.45;;;;;;;3.05;99.77;98476.31;4967700;28;20058;-65
2021/10/25 00:24:11;;;;;;;7.95;2.42;;;;;;;3.65;100.00;98535.16;4967076;28;20123;-65
2021/10/25 00:26:38;;;;;;;7.45;2.92;;;;;;;3.57;99.08;98533.88;4967423;28;20066;-65
2021/10/25 00:29:05;;;;;;;6.35;2.50;;;;;;;2.76;98.51;98390.63;4966917;28;20050;-65
2021/10/25 00:31:32;;;;;;;7.00;3.08;;;;;;;3.05;99.21;98473.56;4967114;28;20058;-65
2021/10/25 00:33:59;;;;;;;6.82;3.40;;;;;;;3.50;100.00;98535.28;4966926;28;20542;-65
2021/10/25 00:36:26;;;;;;;7.85;3.65;;;;;;;3.25;100.00;98475.28;4966719;28;20054;-64
2021/10/25 00:38:53;;;;;;;6.88;2.88;;;;;;;3.22;100.00;98454.78;4965622;28;20434;-65
2021/10/25 00:41:20;;;;;;;7.55;3.22;;;;;;;3.09;99.33;98422.59;4967113;28;20056;-66
2021/10/25 00:43:46;;;;;;;7.20;3.38;;;;;;;3.40;98.09;98470.47;4966646;28;20051;-65
2021/10/25 00:46:13;;;;;;;10.20;2.97;;;;;;;3.73;98.29;98531.78;4966830;28;20050;-65
2021/10/25 00:48:40;;;;;;;5.85;3.10;;;;;;;3.67;98.09;98533.75;4965235;28;20050;-65
2021/10/25 00:51:12;;;;;;;8.75;4.05;;;;;;;3.55;97.32;98522.38;4964954;28;20073;-65
2021/10/25 00:53:40;;;;;;;7.50;2.85;;;;;;;3.54;96.98;98534.41;4965157;28;20564;-66
2021/10/25 00:56:08;;;;;;;4.55;2.65;;;;;;;3.43;97.65;98532.88;4966828;28;20077;-66
2021/10/25 00:58:36;;;;;;;8.00;3.17;;;;;;;3.37;97.53;98517.59;4966795;28;20150;-66
2021/10/25 01:01:04;;;;;;;8.68;3.65;;;;;;;3.40;96.45;98517.03;4965051;28;20050;-65
2021/10/25 01:03:31;;;;;;;7.65;3.33;;;;;;;3.45;96.96;98547.13;4966234;28;20157;-66
2021/10/25 01:05:58;;;;;;;6.75;3.28;;;;;;;3.48;95.80;98530.09;4964477;28;20074;-65
2021/10/25 01:08:29;;;;;;;7.47;3.03;;;;;;;3.26;96.71;98527.00;4965076;28;20059;-66
2021/10/25 01:10:57;;;;;;;13.20;5.53;;;;;;;3.41;98.55;98537.84;4965327;28;20092;-66
2021/10/25 01:13:25;;;;;;;10.18;4.25;;;;;;;1.16;96.94;98213.09;4965246;28;20058;-66
2021/10/25 01:15:51;;;;;;;10.98;3.63;;;;;;;3.34;98.20;98536.53;4966402;28;20067;-66
2021/10/25 01:18:18;;;;;;;10.48;3.80;;;;;;;3.38;98.50;98532.94;4965475;28;20513;-66
2021/10/25 01:20:45;;;;;;;11.25;4.10;;;;;;;3.32;99.30;98536.81;4964788;28;20050;-66
2021/10/25 01:23:12;;;;;;;8.55;3.88;;;;;;;3.40;99.51;98533.47;4966180;28;20059;-66
2021/10/25 01:25:39;;;;;;;8.13;3.63;;;;;;;3.32;99.90;98536.03;4965808;28;20050;-66
2021/10/25 01:28:05;;;;;;;7.45;3.05;;;;;;;3.32;99.29;98531.34;4964772;28;20059;-66
2021/10/25 01:30:32;;;;;;;10.45;5.03;;;;;;;2.47;99.55;98397.97;4963755;28;20466;-66
2021/10/25 01:32:59;;;;;;;10.35;4.50;;;;;;;1.94;99.79;98314.19;4966140;28;20053;-66
2021/10/25 01:35:26;;;;;;;8.55;4.15;;;;;;;3.15;99.51;98533.69;4965761;28;20050;-66
2021/10/25 01:37:53;;;;;;;12.30;5.30;;;;;;;3.08;100.00;98534.00;4964872;28;20433;-66
2021/10/25 01:40:20;;;;;;;10.13;5.10;;;;;;;2.53;99.87;98429.66;4965733;28;20062;-65
2021/10/25 01:42:46;;;;;;;23.02;8.43;;;;;;;3.27;100.00;98533.31;4964098;28;20530;-66
2021/10/25 01:45:13;;;;;;;17.00;6.90;;;;;;;3.27;99.65;98527.84;4965364;28;20110;-65
2021/10/25 01:47:40;;;;;;;19.23;7.72;;;;;;;-0.26;99.56;97948.94;4964355;28;20542;-65
2021/10/25 01:50:08;;;;;;;12.30;5.28;;;;;;;3.20;99.66;98522.69;4963540;28;20058;-65
2021/10/25 01:52:34;;;;;;;14.23;5.95;;;;;;;2.88;100.00;98489.56;4965964;28;20226;-66
2021/10/25 01:55:03;;;;;;;9.80;4.13;;;;;;;2.83;100.00;98498.63;4965118;28;20506;-65
2021/10/25 01:57:30;;;;;;;11.45;4.38;;;;;;;3.19;100.00;98537.50;4964333;28;20081;-65
2021/10/25 01:59:57;;;;;;;6.05;3.70;;;;;;;3.16;98.90;98532.59;4965117;28;20536;-65
2021/10/25 02:02:24;;;;;;;8.88;3.58;;;;;;;3.09;99.58;98527.44;4965248;28;20427;-65
2021/10/25 02:04:51;;;;;;;8.45;3.70;;;;;;;3.06;99.33;98598.38;4965091;28;20452;-65
2021/10/25 02:07:18;;;;;;;6.90;3.05;;;;;;;2.73;98.99;98484.22;4965211;28;20537;-66
2021/10/25 02:09:44;;;;;;;8.25;3.33;;;;;;;2.84;99.46;98524.06;4963606;28;20055;-66
2021/10/25 02:12:12;;;;;;;7.25;3.30;;;;;;;3.09;99.73;98532.09;4964768;28;20063;-65
2021/10/25 02:14:39;;;;;;;11.38;4.78;;;;;;;2.90;98.54;98512.00;4965331;28;20054;-66
2021/10/25 02:17:05;;;;;;;10.85;4.80;;;;;;;3.06;99.07;98538.97;4965576;28;20066;-66
2021/10/25 02:19:32;;;;;;;8.77;4.32;;;;;;;2.97;99.76;98537.91;4965369;28;20063;-66
2021/10/25 02:21:59;;;;;;;6.35;3.47;;;;;;;2.74;100.00;98496.78;4964884;28;20047;-65
2021/10/25 02:24:26;;;;;;;7.82;3.63;;;;;;;3.19;99.43;98537.50;4965030;28;20619;-66
2021/10/25 02:26:53;;;;;;;6.70;3.05;;;;;;;3.20;98.59;98544.59;4965025;28;20058;-66
2021/10/25 02:29:19;;;;;;;7.22;3.50;;;;;;;3.25;98.35;98541.81;4965154;28;20509;-66
2021/10/25 02:31:46;;;;;;;7.57;3.72;;;;;;;2.85;98.73;98481.91;4964982;28;20054;-66
2021/10/25 02:34:13;;;;;;;16.05;6.45;;;;;;;2.40;98.87;98413.88;4965244;28;20061;-66
2021/10/25 02:36:40;;;;;;;24.27;10.07;;;;;;;3.24;98.56;98534.69;4965762;28;20081;-66
2021/10/25 02:39:06;;;;;;;25.85;11.98;;;;;;;2.58;98.25;98449.56;4963871;28;20062;-66
2021/10/25 02:41:33;;;;;;;22.45;8.98;;;;;;;3.28;97.55;98546.72;4963174;28;20051;-65
2021/10/25 02:44:00;;;;;;;17.33;7.90;;;;;;;3.28;97.73;98552.19;4964556;28;20059;-65
2021/10/25 02:46:27;;;;;;;19.83;7.53;;;;;;;3.22;98.24;98547.03;4964748;28;20065;-65
2021/10/25 02:48:53;;;;;;;12.10;5.97;;;;;;;2.67;97.78;98461.53;4963315;28;20596;-65
2021/10/25 02:51:20;;;;;;;11.95;5.60;;;;;;;3.16;97.50;98549.03;4963252;28;20518;-64
2021/10/25 02:53:47;;;;;;;9.00;4.53;;;;;;;3.23;95.20;98543.19;4963409;28;20453;-65
2021/10/25 02:56:14;;;;;;;15.48;5.95;;;;;;;2.78;95.85;98492.38;4963321;28;20050;-65
2021/10/25 02:58:40;;;;;;;12.82;5.13;;;;;;;3.11;96.58;98551.78;4965199;28;20055;-64
2021/10/25 03:01:08;;;;;;;11.30;5.95;;;;;;;2.67;96.66;98485.34;4964496;28;20062;-65
2021/10/25 03:03:35;;;;;;;9.00;4.15;;;;;;;3.13;96.29;98555.03;4965278;28;20183;-66
2021/10/25 03:06:02;;;;;;;10.68;4.03;;;;;;;3.15;95.30;98552.84;4965237;28;20506;-65
2021/10/25 03:08:29;;;;;;;14.57;6.45;;;;;;;3.11;95.94;98538.09;4964358;28;20059;-65
2021/10/25 03:10:56;;;;;;;60.03;21.17;;;;;;;2.76;96.85;98511.00;4962794;28;20544;-65
2021/10/25 03:13:23;;;;;;;146.23;47.22;;;;;;;2.97;97.75;98545.34;4963352;28;20070;-66
2021/10/25 03:15:50;;;;;;;63.42;24.83;;;;;;;2.88;96.95;98525.13;4964996;28;20047;-65
2021/10/25 03:18:17;;;;;;;31.17;13.95;;;;;;;2.91;98.31;98540.97;4964302;28;20051;-64
2021/10/25 03:20:44;;;;;;;21.00;10.70;;;;;;;2.67;99.61;98512.72;4962964;28;20051;-66
2021/10/25 03:23:12;;;;;;;20.42;9.45;;;;;;;2.09;100.00;98410.53;4964610;28;20058;-66
2021/10/25 03:25:39;;;;;;;11.38;5.65;;;;;;;2.49;100.00;98462.22;4964784;28;20047;-66
2021/10/25 03:28:06;;;;;;;10.52;5.63;;;;;;;2.83;99.77;98549.78;4962968;28;20059;-65
2021/10/25 03:30:33;;;;;;;10.77;5.80;;;;;;;2.83;100.00;98544.31;4964715;28;20607;-65
2021/10/25 03:33:01;;;;;;;9.93;4.95;;;;;;;2.77;100.00;98542.72;4964252;28;20055;-67
2021/10/25 03:35:29;;;;;;;16.73;5.43;;;;;;;2.84;99.34;98544.06;4967023;28;20058;-66
2021/10/25 03:37:57;;;;;;;12.38;5.55;;;;;;;2.46;99.49;98478.38;4968088;28;20051;-66
2021/10/25 03:40:25;;;;;;;13.52;6.20;;;;;;;2.82;100.00;98538.03;4968008;28;20058;-64
2021/10/25 03:42:54;;;;;;;12.32;6.22;;;;;;;2.88;99.21;98536.06;4967949;28;20170;-64
2021/10/25 03:50:28;;;;;;;12.70;5.90;;;;;;;2.22;98.71;98450.09;4968670;28;20059;-64
2021/10/25 03:56:03;;;;;;;11.75;6.25;;;;;;;2.31;100.00;98492.16;4967362;28;20078;-65
2021/10/25 04:30:35;;;;;;;14.02;5.68;;;;;;;2.24;100.00;98525.25;4967521;28;20497;-64
2021/10/25 04:33:02;;;;;;;13.40;4.32;;;;;;;2.32;100.00;98537.53;4965294;28;20062;-66
2021/10/25 04:35:29;;;;;;;9.43;4.63;;;;;;;1.66;100.00;98413.22;4965340;28;20050;-65
2021/10/25 04:37:57;;;;;;;8.43;4.10;;;;;;;2.33;100.00;98541.88;4965334;28;20094;-65
2021/10/25 04:40:25;;;;;;;11.73;5.88;;;;;;;2.42;100.00;98553.88;4965070;28;20542;-66
2021/10/25 04:42:52;;;;;;;18.67;6.90;;;;;;;1.81;100.00;98430.34;4967133;28;20050;-65
2021/10/25 04:45:19;;;;;;;14.13;8.13;;;;;;;2.01;100.00;98475.91;4966622;28;20053;-66
2021/10/25 04:47:46;;;;;;;15.70;7.85;;;;;;;2.37;100.00;98553.91;4966444;28;20054;-66
2021/10/25 04:50:13;;;;;;;14.52;6.85;;;;;;;2.47;100.00;98540.16;4965477;28;20081;-66
2021/10/25 04:52:40;;;;;;;16.48;7.13;;;;;;;2.53;99.71;98547.25;4966580;28;20065;-65
2021/10/25 04:55:07;;;;;;;16.10;6.47;;;;;;;2.46;99.66;98541.25;4966885;28;20050;-66
2021/10/25 04:57:33;;;;;;;15.57;6.32;;;;;;;1.61;99.77;98454.19;4965068;28;20059;-67
2021/10/25 05:00:00;;;;;;;17.77;7.70;;;;;;;2.56;99.21;98554.91;4966476;28;20069;-66
2021/10/25 05:02:27;;;;;;;19.20;7.50;;;;;;;2.36;98.22;98517.53;4966240;28;20474;-66
2021/10/25 05:04:55;;;;;;;27.40;12.88;;;;;;;2.60;97.02;98547.75;4965542;28;20445;-66
2021/10/25 05:07:22;;;;;;;34.17;14.50;;;;;;;2.56;96.68;98550.22;4966077;28;20620;-67
2021/10/25 05:09:48;;;;;;;28.85;13.18;;;;;;;2.50;97.29;98553.25;4966265;28;20461;-67
2021/10/25 05:12:15;;;;;;;26.92;11.77;;;;;;;2.11;97.82;98493.06;4964708;28;20507;-67
2021/10/25 05:14:42;;;;;;;22.25;10.82;;;;;;;2.51;97.59;98544.78;4966585;28;20066;-67
2021/10/25 05:17:10;;;;;;;24.65;11.55;;;;;;;2.74;96.57;98567.91;4966075;28;20146;-66
2021/10/25 05:19:36;;;;;;;25.00;11.18;;;;;;;2.49;96.98;98516.91;4965828;28;20065;-67
2021/10/25 05:22:03;;;;;;;19.38;9.70;;;;;;;2.97;97.85;98572.69;4966109;28;20053;-67
2021/10/25 05:24:31;;;;;;;19.52;9.10;;;;;;;3.16;95.71;98568.19;4965710;28;20061;-67
2021/10/25 05:26:58;;;;;;;23.55;9.35;;;;;;;3.23;95.71;98576.88;4964302;28;20510;-66
2021/10/25 05:29:25;;;;;;;20.35;9.30;;;;;;;3.31;96.33;98576.28;4966236;28;20051;-67
2021/10/25 05:31:51;;;;;;;21.27;9.25;;;;;;;3.38;94.79;98579.50;4966144;28;20225;-66
2021/10/25 05:34:18;;;;;;;17.00;9.05;;;;;;;3.46;94.52;98565.19;4965670;28;20057;-65
2021/10/25 05:36:45;;;;;;;13.52;7.57;;;;;;;3.48;93.96;98573.94;4964175;28;20054;-66
2021/10/25 05:39:12;;;;;;;12.10;6.72;;;;;;;3.26;93.44;98515.28;4965450;28;20529;-67
2021/10/25 05:41:39;;;;;;;19.77;8.52;;;;;;;3.53;92.40;98537.44;4965696;28;20086;-66
2021/10/25 05:44:06;;;;;;;20.92;10.75;;;;;;;3.57;93.17;98511.94;4964317;28;20061;-66
2021/10/25 05:46:33;;;;;;;26.13;12.52;;;;;;;3.97;93.71;98577.28;4965604;28;20061;-66
2021/10/25 05:49:00;;;;;;;20.50;10.93;;;;;;;4.00;93.57;98560.25;4965783;28;20050;-67
2021/10/25 05:51:27;;;;;;;19.17;8.20;;;;;;;4.24;91.64;98583.03;4965960;28;20050;-67
2021/10/25 05:53:54;;;;;;;13.82;6.85;;;;;;;4.46;91.89;98624.44;4965896;28;20103;-66
2021/10/25 05:56:27;;;;;;;21.23;8.95;;;;;;;3.39;90.52;98438.72;4964381;28;20058;-66
2021/10/25 05:58:54;;;;;;;14.25;7.13;;;;;;;3.22;90.93;98424.66;4963863;28;20059;-67
2021/10/25 06:01:26;;;;;;;11.98;6.65;;;;;;;4.07;91.16;98522.34;4965287;28;20055;-66
2021/10/25 06:04:00;;;;;;;9.13;4.70;;;;;;;4.78;89.21;98603.75;4964077;28;20054;-67
2021/10/25 06:06:26;;;;;;;14.35;6.35;;;;;;;4.99;89.23;98603.19;4964895;28;20065;-67
2021/10/25 06:08:53;;;;;;;13.50;5.90;;;;;;;5.08;88.42;98595.06;4964004;28;20063;-67
2021/10/25 06:11:20;;;;;;;12.98;6.03;;;;;;;4.96;87.51;98548.03;4963789;28;20132;-67
2021/10/25 06:13:47;;;;;;;12.68;6.85;;;;;;;4.20;86.82;98453.09;4963915;28;20442;-68
2021/10/25 06:16:19;;;;;;;15.07;7.00;;;;;;;5.62;86.19;98604.41;4964896;28;20529;-67
2021/10/25 06:18:46;;;;;;;18.17;7.80;;;;;;;5.83;83.62;98604.91;4965072;28;20057;-69
2021/10/25 06:21:12;;;;;;;17.88;9.02;;;;;;;4.51;84.14;98363.75;4964779;28;20065;-66
2021/10/25 06:23:39;;;;;;;27.85;10.38;;;;;;;6.24;82.28;98611.28;4965210;28;20055;-67
2021/10/25 06:26:06;;;;;;;28.92;14.57;;;;;;;6.41;81.27;98608.75;4965043;28;20058;-66
2021/10/25 06:28:34;;;;;;;20.75;10.70;;;;;;;6.19;81.06;98553.63;4964002;28;20057;-67
2021/10/25 06:31:08;;;;;;;17.67;8.55;;;;;;;6.61;79.91;98605.59;4964824;28;20059;-67
2021/10/25 06:33:45;;;;;;;16.67;7.65;;;;;;;6.67;79.43;98620.88;4963333;28;20054;-68
2021/10/25 06:36:13;;;;;;;16.58;8.18;;;;;;;6.82;78.66;98606.81;4964434;28;20550;-68
2021/10/25 06:39:09;;;;;;;15.73;7.88;;;;;;;7.02;77.97;98605.53;4963536;28;20055;-67
2021/10/25 06:41:36;;;;;;;22.92;8.98;;;;;;;6.51;78.02;98545.25;4964749;28;20059;-67
2021/10/25 06:44:06;;;;;;;19.60;8.38;;;;;;;6.93;79.23;98605.47;4964672;28;20065;-67
2021/10/25 06:46:33;;;;;;;23.60;10.90;;;;;;;7.26;78.18;98601.41;4964914;28;20050;-68
2021/10/25 06:49:01;;;;;;;23.48;14.15;;;;;;;7.50;77.28;98607.44;4963022;28;20506;-68
2021/10/25 06:51:28;;;;;;;23.67;12.90;;;;;;;7.24;77.28;98553.25;4965010;28;20093;-68
2021/10/25 06:53:54;;;;;;;14.88;7.00;;;;;;;7.71;77.49;98630.63;4964959;28;20058;-68
2021/10/25 06:56:21;;;;;;;11.25;6.00;;;;;;;7.90;79.09;98607.56;4979488;28;20058;-69
2021/10/25 06:58:48;;;;;;;16.35;6.13;;;;;;;7.79;78.29;98571.16;4963308;28;20055;-70
2021/10/25 07:01:16;;;;;;;12.98;6.38;;;;;;;7.93;78.72;98584.88;4962540;28;20054;-67
2021/10/25 07:03:43;;;;;;;8.15;5.13;;;;;;;8.33;78.43;98603.16;4964383;28;20054;-68
2021/10/25 07:06:15;;;;;;;10.10;4.78;;;;;;;8.32;77.25;98573.88;4964480;28;20067;-67
2021/10/25 07:08:44;;;;;;;8.77;5.07;;;;;;;8.61;77.66;98587.97;4965126;28;20055;-68
2021/10/25 07:11:14;;;;;;;7.65;4.47;;;;;;;8.93;75.72;98601.41;4967016;28;20090;-68
2021/10/25 07:13:46;;;;;;;7.25;4.80;;;;;;;9.21;74.89;98605.53;4966651;28;20061;-68
2021/10/25 08:06:39;;;;;;;4.70;3.03;;;;;;;10.65;62.96;98571.25;4948159;28;20602;-68
2021/10/25 08:09:36;;;;;;;9.50;3.40;;;;;;;10.68;63.59;98567.81;4948088;28;20429;-67
2021/10/25 08:12:02;;;;;;;5.57;3.60;;;;;;;10.34;65.12;98565.19;4947195;28;20067;-68
2021/10/25 08:14:40;;;;;;;5.38;3.28;;;;;;;10.73;64.75;98567.63;4947277;29;20055;-68
2021/10/25 08:17:09;;;;;;;7.97;3.60;;;;;;;11.08;63.51;98564.66;4948017;28;20051;-67
2021/10/25 08:19:36;;;;;;;11.50;4.35;;;;;;;11.35;64.12;98562.16;4948204;28;20570;-66
2021/10/25 08:22:06;;;;;;;4.78;3.10;;;;;;;11.57;62.78;98555.47;4947121;28;20055;-68
2021/10/25 08:24:35;;;;;;;9.60;4.57;;;;;;;11.77;62.95;98551.88;4947845;28;20059;-67
2021/10/25 08:27:04;;;;;;;8.45;3.35;;;;;;;11.17;62.78;98555.13;4947226;28;20442;-68
2021/10/25 08:29:32;;;;;;;8.50;3.10;;;;;;;11.12;63.41;98546.19;4947780;28;20052;-68
2021/10/25 08:40:05;;;;;;;6.45;3.47;;;;;;;11.39;60.79;98551.19;4966502;28;20498;-71
2021/10/25 08:42:35;;;;;;;12.75;3.65;;;;;;;11.49;60.32;98542.47;4967008;28;20050;-67
2021/10/25 08:45:11;;;;;;;6.30;3.42;;;;;;;11.32;59.79;98537.03;4966686;28;20055;-67
2021/10/25 08:47:43;;;;;;;11.63;4.03;;;;;;;11.10;59.53;98543.75;4965008;28;20502;-67
2021/10/25 08:50:15;;;;;;;9.65;3.53;;;;;;;11.33;59.66;98541.47;4964884;28;20061;-67
2021/10/25 08:52:42;;;;;;;10.07;4.40;;;;;;;11.67;59.57;98543.97;4966871;28;20469;-67
2021/10/25 08:55:11;;;;;;;5.72;3.33;;;;;;;11.95;58.97;98525.53;4966225;28;20133;-68
2021/10/25 08:57:40;;;;;;;6.65;3.10;;;;;;;12.47;57.58;98534.88;4965977;28;20058;-68
2021/10/25 09:00:16;;;;;;;7.70;4.20;;;;;;;11.83;57.22;98533.84;4966915;28;20067;-68
2021/10/25 09:02:57;;;;;;;6.53;4.00;;;;;;;12.18;56.71;98535.91;4966667;28;20059;-67
2021/10/25 09:05:25;;;;;;;8.75;3.97;;;;;;;10.71;55.14;98308.59;4966037;28;20059;-67
2021/10/25 09:08:04;;;;;;;9.57;3.55;;;;;;;12.04;55.87;98523.50;4966258;28;20054;-67
2021/10/25 09:10:51;;;;;;;9.80;3.10;;;;;;;12.26;54.71;98525.84;4965857;28;20046;-67
2021/10/25 09:13:27;;;;;;;7.38;3.35;;;;;;;12.17;54.86;98522.38;4965692;28;20526;-67
2021/10/25 09:15:59;;;;;;;6.35;3.15;;;;;;;12.29;55.03;98536.28;4966140;28;20058;-68
2021/10/25 09:18:30;;;;;;;5.55;3.22;;;;;;;12.46;53.17;98501.88;4964617;28;20058;-68
2021/10/25 09:21:05;;;;;;;7.53;3.33;;;;;;;12.74;52.47;98520.31;4964229;28;20073;-69
2021/10/25 09:23:41;;;;;;;8.60;3.05;;;;;;;12.70;52.79;98497.16;4966127;28;20509;-70
2021/10/25 09:26:11;;;;;;;7.47;3.65;;;;;;;13.11;52.46;98513.56;4966263;28;20174;-68
2021/10/25 09:28:54;;;;;;;7.00;3.28;;;;;;;13.26;51.88;98515.59;4966151;28;20818;-69
2021/10/25 09:31:28;;;;;;;5.65;3.13;;;;;;;13.29;51.65;98509.34;4964022;28;20054;-68
2021/10/25 09:34:08;;;;;;;6.15;3.08;;;;;;;13.42;51.15;98513.72;4965479;28;20086;-68
2021/10/25 09:36:42;;;;;;;9.63;4.25;;;;;;;12.73;49.93;98390.78;4964195;28;20057;-68
2021/10/25 09:39:20;;;;;;;7.47;3.63;;;;;;;13.68;49.29;98516.88;4963856;28;20058;-68
2021/10/25 09:49:59;;;;;;;4.93;3.15;;;;;;;13.62;47.20;98496.00;4965561;28;20141;-67
2021/10/25 09:52:30;;;;;;;3.67;2.85;;;;;;;13.46;47.42;98475.66;4964895;28;20052;-68
2021/10/25 09:55:12;;;;;;;6.30;3.17;;;;;;;13.39;48.24;98419.78;4966367;28;20043;-67
2021/10/25 09:57:52;;;;;;;10.55;3.80;;;;;;;14.23;47.98;98481.72;4965557;28;20494;-67
2021/10/25 10:00:20;;;;;;;5.88;3.17;;;;;;;14.19;46.74;98470.50;4963809;28;20068;-67
2021/10/25 10:02:48;;;;;;;9.40;5.00;;;;;;;13.50;48.22;98476.56;4964259;28;20063;-66
2021/10/25 10:05:18;;;;;;;9.02;4.13;;;;;;;13.56;49.96;98463.22;4965436;28;20061;-68
2021/10/25 10:07:46;;;;;;;7.15;3.22;;;;;;;13.97;47.66;98465.53;4965121;28;20530;-68
2021/10/25 10:10:15;;;;;;;6.35;3.05;;;;;;;13.98;48.24;98418.97;4963775;28;20055;-67
2021/10/25 10:12:44;;;;;;;9.30;3.90;;;;;;;14.23;46.78;98439.91;4964874;28;20055;-69
2021/10/25 10:15:13;;;;;;;7.45;4.00;;;;;;;14.14;48.37;98450.44;4965084;28;20489;-67
2021/10/25 10:17:48;;;;;;;7.63;3.58;;;;;;;14.13;47.54;98443.25;4933549;28;20615;-67
2021/10/25 10:20:30;;;;;;;10.85;3.55;;;;;;;14.12;47.34;98427.69;4964727;28;20291;-68
2021/10/25 10:23:00;;;;;;;5.88;2.88;;;;;;;14.28;46.38;98434.09;4964067;28;20051;-69
2021/10/25 10:25:52;;;;;;;9.57;4.18;;;;;;;13.99;47.37;98437.31;4963969;28;20054;-67
2021/10/25 10:28:32;;;;;;;10.30;4.47;;;;;;;14.01;46.30;98412.66;4958739;28;20050;-67
2021/10/25 10:31:09;;;;;;;6.88;3.83;;;;;;;14.08;46.90;98418.44;4965174;28;20057;-67
2021/10/25 10:33:39;;;;;;;8.15;3.50;;;;;;;14.11;46.07;98423.28;4963715;28;20050;-68
2021/10/25 10:36:21;;;;;;;6.85;3.45;;;;;;;14.23;45.55;98415.63;4963390;28;20073;-67
2021/10/25 10:39:09;;;;;;;3.78;3.20;;;;;;;14.41;45.72;98416.09;4963906;28;20055;-68
2021/10/25 10:41:40;;;;;;;4.43;3.10;;;;;;;14.58;44.23;98415.72;4965430;28;20091;-68
2021/10/25 10:44:16;;;;;;;5.60;3.50;;;;;;;14.59;43.34;98414.56;4962274;28;20238;-68
2021/10/25 10:46:55;;;;;;;3.47;3.03;;;;;;;14.52;42.93;98406.84;4964242;28;20166;-68
2021/10/25 10:49:43;;;;;;;6.68;3.33;;;;;;;14.42;44.30;98406.56;4964838;28;20058;-67
2021/10/25 10:55:09;;;;;;;10.75;5.00;;;;;;;14.58;44.74;98388.63;4964163;28;20058;-67
2021/10/25 11:00:30;;;;;;;6.78;3.45;;;;;;;14.31;42.09;98333.03;4964538;28;20245;-67
2021/10/25 11:03:15;;;;;;;7.15;3.17;;;;;;;13.90;42.87;98375.38;4963458;28;20050;-66
2021/10/25 11:05:46;;;;;;;3.20;2.70;;;;;;;14.22;42.41;98374.19;4964876;28;20059;-68
2021/10/25 11:08:21;;;;;;;3.97;2.80;;;;;;;14.34;42.10;98371.31;4962982;28;20058;-67
2021/10/25 11:11:08;;;;;;;6.03;3.03;;;;;;;14.44;42.83;98365.19;4964164;28;20069;-68
2021/10/25 11:13:49;;;;;;;5.00;2.75;;;;;;;13.82;43.17;98359.66;4964462;28;20097;-68
2021/10/25 11:18:56;;;;;;;7.47;3.13;;;;;;;14.59;42.91;98347.63;4964706;28;20054;-67
2021/10/25 11:21:33;;;;;;;6.00;3.35;;;;;;;14.76;42.79;98345.19;4963856;28;20497;-68
2021/10/25 11:24:10;;;;;;;7.38;2.88;;;;;;;14.79;41.72;98310.19;4963027;28;20055;-67
2021/10/25 11:26:51;;;;;;;6.95;3.10;;;;;;;15.03;41.62;98337.81;4964514;28;20094;-68
2021/10/25 11:29:26;;;;;;;7.43;3.20;;;;;;;14.84;41.47;98335.03;4964184;28;20054;-68
2021/10/25 11:31:53;;;;;;;5.20;3.25;;;;;;;14.75;41.39;98340.81;4962876;28;20655;-68
2021/10/25 11:34:36;;;;;;;5.35;2.78;;;;;;;14.16;41.96;98314.34;4963014;28;20053;-67
2021/10/25 11:37:09;;;;;;;;;;;;;;;14.51;42.60;98331.91;4965095;28;20047;-67
2021/10/25 11:39:40;;;;;;;4.18;2.70;;;;;;;14.18;41.84;98267.41;4964784;28;19937;-67
2021/10/25 11:42:21;;;;;;;4.18;2.88;;;;;;;14.69;41.29;98335.88;4964652;28;20070;-67
2021/10/25 11:44:51;;;;;;;9.10;3.90;;;;;;;14.77;40.74;98295.81;4962680;28;20055;-67
2021/10/25 11:47:21;;;;;;;4.05;3.40;;;;;;;14.79;40.66;98324.16;4964239;28;20061;-67
2021/10/25 11:49:50;;;;;;;3.97;2.55;;;;;;;14.72;40.71;98321.19;4962437;28;20054;-67
2021/10/25 11:52:17;;;;;;;3.42;2.67;;;;;;;14.57;39.90;98302.56;4962665;28;20054;-68
2021/10/25 11:54:51;;;;;;;6.93;3.95;;;;;;;15.04;41.02;98314.28;4963941;28;20153;-67
2021/10/25 11:57:19;;;;;;;4.30;2.97;;;;;;;14.87;39.60;98261.75;4967842;28;20066;-68
2021/10/25 12:00:00;;;;;;;6.75;3.47;;;;;;;15.38;39.60;98310.59;4966261;28;20069;-66
2021/10/25 12:02:26;;;;;;;6.50;3.15;;;;;;;15.12;39.77;98263.03;4966094;28;20506;-66
2021/10/25 12:04:53;;;;;;;3.65;3.22;;;;;;;15.23;39.06;98317.06;4965094;28;20522;-66
2021/10/25 12:07:22;;;;;;;4.80;3.10;;;;;;;15.15;39.90;98306.94;4967560;28;20078;-67
2021/10/25 12:09:59;;;;;;;5.32;3.03;;;;;;;15.32;39.71;98308.47;4965746;28;20080;-68
2021/10/25 12:12:26;;;;;;;7.90;3.45;;;;;;;15.42;39.58;98299.50;4965775;28;20462;-67
2021/10/25 12:14:58;;;;;;;2.60;2.40;;;;;;;15.47;39.88;98280.47;4966160;28;20065;-67
2021/10/25 12:17:33;;;;;;;6.50;2.90;;;;;;;15.68;37.68;98291.97;4967794;28;20055;-67
2021/10/25 12:20:04;;;;;;;4.72;2.78;;;;;;;15.57;38.16;98296.56;4965700;28;20058;-68
2021/10/25 12:22:30;;;;;;;3.40;2.90;;;;;;;15.39;38.38;98269.53;4965856;28;20061;-67
2021/10/25 12:24:58;;;;;;;4.95;2.72;;;;;;;15.33;37.41;98246.66;4966797;28;20069;-68
2021/10/25 12:27:39;;;;;;;6.72;3.17;;;;;;;15.59;38.74;98293.41;4967074;28;20057;-67
2021/10/25 12:30:13;;;;;;;6.53;3.08;;;;;;;14.52;37.80;98252.66;4966794;28;20453;-67
2021/10/25 12:32:53;;;;;;;3.88;2.75;;;;;;;14.53;39.14;98285.75;4967432;28;20063;-68
2021/10/25 12:35:42;;;;;;;7.03;2.88;;;;;;;7.56;38.66;97343.50;4967184;28;20499;-68
2021/10/25 12:38:19;;;;;;;9.60;3.53;;;;;;;14.79;39.23;98265.56;4966957;28;20061;-67
2021/10/25 12:40:50;;;;;;;4.03;2.95;;;;;;;14.81;38.55;98260.44;4966463;28;20055;-67
2021/10/25 12:43:21;;;;;;;4.00;2.47;;;;;;;14.89;38.30;98287.28;4965582;28;20055;-67
2021/10/25 12:45:57;;;;;;;3.97;2.67;;;;;;;14.77;38.64;98276.28;4966370;28;20510;-67
2021/10/25 12:48:25;;;;;;;3.20;2.90;;;;;;;14.91;38.75;98279.34;4967170;28;20495;-67
2021/10/25 12:51:01;;;;;;;6.45;2.60;;;;;;;14.53;39.11;98274.59;4965218;28;20097;-68
2021/10/25 12:53:32;;;;;;;2.97;2.78;;;;;;;14.77;39.78;98267.91;4967136;28;20072;-66
2021/10/25 12:56:00;;;;;;;5.13;3.15;;;;;;;14.76;40.23;98261.50;4966492;28;20153;-66
2021/10/25 12:58:29;;;;;;;9.02;3.05;;;;;;;13.89;39.07;98103.56;4965285;28;20522;-68
2021/10/25 13:01:06;;;;;;;3.35;3.00;;;;;;;14.11;37.43;98214.28;4964605;28;20058;-67
2021/10/25 13:03:34;;;;;;;3.47;2.38;;;;;;;13.38;38.90;98177.97;4965321;28;20065;-67
2021/10/25 13:06:08;;;;;;;9.18;2.65;;;;;;;14.28;39.09;98266.84;4966101;28;20128;-68
2021/10/25 13:08:36;;;;;;;3.15;2.83;;;;;;;14.47;39.10;98264.09;4964608;28;20063;-68
2021/10/25 13:11:04;;;;;;;4.80;3.22;;;;;;;14.23;38.60;98303.34;4966401;28;20057;-68
2021/10/25 13:13:35;;;;;;;9.63;3.70;;;;;;;12.21;39.15;97889.91;4966597;28;20149;-67
2021/10/25 13:16:05;;;;;;;7.85;3.00;;;;;;;14.29;38.60;98249.75;4965988;28;20141;-67
2021/10/25 13:18:32;;;;;;;5.40;2.22;;;;;;;14.02;38.46;98177.47;4967212;28;20138;-69
2021/10/25 13:20:59;;;;;;;4.75;2.90;;;;;;;14.12;39.19;98263.25;4962935;28;20054;-67
2021/10/25 13:23:26;;;;;;;5.55;3.05;;;;;;;14.28;40.77;98255.69;4966300;28;20063;-69
2021/10/25 13:25:52;;;;;;;2.72;2.50;;;;;;;14.49;41.04;98250.59;4963984;28;20074;-67
2021/10/25 13:28:19;;;;;;;7.78;3.85;;;;;;;14.40;40.78;98236.84;4966322;28;20058;-69
2021/10/25 13:30:46;;;;;;;5.40;3.40;;;;;;;14.23;40.60;98203.81;4965989;28;20055;-69
2021/10/25 13:33:13;;;;;;;9.65;4.15;;;;;;;14.69;40.88;98249.41;4966333;28;20529;-68
2021/10/25 13:35:40;;;;;;;6.05;3.33;;;;;;;14.56;39.85;98212.50;4965645;28;20697;-68
2021/10/25 13:38:08;;;;;;;7.65;3.60;;;;;;;14.76;38.89;98230.03;4965784;28;20055;-66
2021/10/25 13:40:35;;;;;;;4.32;2.55;;;;;;;14.65;39.98;98237.38;4963884;28;20046;-67
2021/10/25 13:43:14;;;;;;;3.63;2.60;;;;;;;13.77;40.25;98173.34;4964334;28;20062;-67